createdAt,value
2018-12-02T00:00:55.920Z,91.27
2018-12-02T00:01:55.839Z,91.27
2018-12-02T00:03:49.130Z,91.55
2018-12-02T00:04:49.116Z,91.46
2018-12-02T00:06:42.557Z,91.55
2018-12-02T00:07:42.505Z,91.08
2018-12-02T00:09:35.791Z,91.74
2018-12-02T00:10:35.755Z,91.08
2018-12-02T00:12:29.066Z,91.55
2018-12-02T00:13:29.022Z,91.84
2018-12-02T00:15:23.322Z,91.55
2018-12-02T00:16:23.462Z,91.55
2018-12-02T00:18:16.618Z,91.94
2018-12-02T00:19:16.551Z,91.74
2018-12-02T00:21:09.856Z,91.84
2018-12-02T00:22:09.802Z,91.36
2018-12-02T00:24:03.142Z,91.94
2018-12-02T00:25:03.068Z,92.03
2018-12-02T00:26:56.382Z,91.60
2018-12-02T00:27:56.326Z,91.55
2018-12-02T00:29:49.637Z,91.98
2018-12-02T00:30:49.577Z,91.98
2018-12-02T00:32:42.921Z,92.13
2018-12-02T00:33:42.862Z,91.69
2018-12-02T00:35:36.144Z,91.94
2018-12-02T00:36:36.111Z,92.13
2018-12-02T00:38:29.437Z,91.69
2018-12-02T00:39:29.369Z,91.31
2018-12-02T00:41:22.702Z,91.98
2018-12-02T00:42:22.638Z,92.08
2018-12-02T00:44:15.949Z,91.98
2018-12-02T00:45:15.918Z,92.27
2018-12-02T00:47:09.284Z,91.79
2018-12-02T00:48:09.171Z,91.98
2018-12-02T00:50:02.482Z,91.98
2018-12-02T00:51:02.431Z,91.31
2018-12-02T00:52:55.740Z,91.88
2018-12-02T00:53:55.685Z,91.98
2018-12-02T00:55:48.994Z,91.50
2018-12-02T00:56:48.948Z,91.79
2018-12-02T00:58:42.276Z,91.98
2018-12-02T00:59:42.202Z,91.88
2018-12-02T01:01:35.537Z,91.88
2018-12-02T01:02:35.467Z,91.69
2018-12-02T01:04:28.787Z,92.08
2018-12-02T01:05:28.733Z,91.98
2018-12-02T01:07:22.042Z,92.46
2018-12-02T01:08:21.994Z,92.27
2018-12-02T01:10:15.316Z,92.17
2018-12-02T01:11:15.255Z,92.17
2018-12-02T01:13:08.599Z,92.36
2018-12-02T01:14:08.519Z,92.17
2018-12-02T01:16:01.859Z,92.17
2018-12-02T01:17:01.794Z,91.98
2018-12-02T01:18:55.107Z,92.17
2018-12-02T01:19:55.048Z,92.17
2018-12-02T01:21:48.363Z,91.13
2018-12-02T01:22:48.308Z,91.41
2018-12-02T01:24:43.828Z,91.41
2018-12-02T01:25:43.684Z,91.88
2018-12-02T01:27:47.059Z,91.98
2018-12-02T01:28:38.046Z,92.08
2018-12-02T01:30:32.688Z,92.17
2018-12-02T01:31:32.350Z,91.13
2018-12-02T01:33:27.263Z,91.31
2018-12-02T01:34:26.669Z,91.50
2018-12-02T01:36:20.632Z,91.50
2018-12-02T01:37:20.506Z,91.50
2018-12-02T01:39:24.623Z,91.41
2018-12-02T01:40:15.665Z,91.03
2018-12-02T01:42:10.239Z,91.22
2018-12-02T01:43:10.173Z,91.22
2018-12-02T01:45:14.140Z,91.03
2018-12-02T01:46:04.390Z,91.31
2018-12-02T01:47:58.921Z,91.03
2018-12-02T01:48:58.664Z,91.03
2018-12-02T01:50:53.440Z,91.41
2018-12-02T01:51:52.967Z,91.41
2018-12-02T01:53:55.855Z,91.60
2018-12-02T01:54:48.174Z,90.93
2018-12-02T01:56:43.642Z,92.17
2018-12-02T01:57:43.531Z,91.88
2018-12-02T01:59:37.991Z,91.22
2018-12-02T02:00:37.786Z,91.60
2018-12-02T02:02:31.491Z,91.41
2018-12-02T02:03:31.125Z,91.13
2018-12-02T02:05:26.978Z,91.50
2018-12-02T02:06:26.536Z,91.69
2018-12-02T02:08:20.989Z,92.17
2018-12-02T02:09:20.841Z,91.60
2018-12-02T02:11:15.341Z,91.69
2018-12-02T02:12:15.165Z,91.13
2018-12-02T02:14:09.065Z,91.50
2018-12-02T02:15:09.085Z,91.50
2018-12-02T02:17:02.867Z,92.17
2018-12-02T02:18:02.336Z,91.03
2018-12-02T02:19:57.654Z,90.26
2018-12-02T02:20:57.575Z,89.31
2018-12-02T02:23:02.740Z,88.64
2018-12-02T02:24:01.690Z,87.21
2018-12-02T02:25:47.595Z,85.41
2018-12-02T02:26:46.792Z,84.26
2018-12-02T02:28:40.351Z,82.26
2018-12-02T02:29:40.298Z,81.02
2018-12-02T02:31:36.066Z,79.11
2018-12-02T02:32:35.601Z,77.64
2018-12-02T02:34:34.703Z,74.50
2018-12-02T02:35:34.547Z,73.74
2018-12-02T02:38:15.209Z,70.21
2018-12-02T02:38:57.897Z,70.69
2018-12-02T02:41:01.980Z,70.40
2018-12-02T02:41:52.137Z,68.98
2018-12-02T02:43:47.551Z,68.78
2018-12-02T02:44:48.137Z,67.83
2018-12-02T02:46:43.773Z,66.21
2018-12-02T02:47:43.632Z,65.92
2018-12-02T02:49:38.287Z,64.02
2018-12-02T02:50:37.969Z,64.56
2018-12-02T02:52:33.762Z,62.27
2018-12-02T02:53:33.347Z,62.40
2018-12-02T02:55:28.734Z,61.13
2018-12-02T02:56:28.627Z,61.04
2018-12-02T02:58:23.976Z,59.51
2018-12-02T02:59:23.897Z,59.35
2018-12-02T03:01:18.427Z,58.84
2018-12-02T03:02:18.313Z,58.56
2018-12-02T03:04:22.027Z,56.18
2018-12-02T03:05:13.474Z,55.80
2018-12-02T03:07:19.987Z,54.08
2018-12-02T03:08:19.914Z,54.18
2018-12-02T03:10:24.381Z,53.42
2018-12-02T03:11:14.556Z,54.08
2018-12-02T03:13:09.003Z,53.61
2018-12-02T03:14:08.829Z,53.23
2018-12-02T03:16:03.699Z,52.18
2018-12-02T03:17:03.568Z,50.94
2018-12-02T03:18:59.203Z,49.99
2018-12-02T03:19:58.920Z,49.13
2018-12-02T03:21:53.968Z,47.89
2018-12-02T03:22:54.027Z,48.56
2018-12-02T03:24:49.554Z,47.80
2018-12-02T03:25:49.202Z,47.13
2018-12-02T03:27:56.913Z,46.28
2018-12-02T03:28:44.497Z,46.28
2018-12-02T03:30:40.050Z,44.94
2018-12-02T03:31:39.905Z,44.94
2018-12-02T03:33:37.069Z,44.56
2018-12-02T03:34:36.995Z,43.90
2018-12-02T03:36:31.665Z,43.61
2018-12-02T03:37:31.253Z,43.04
2018-12-02T03:39:25.273Z,43.61
2018-12-02T03:40:25.408Z,42.94
2018-12-02T03:42:28.464Z,42.56
2018-12-02T03:43:19.459Z,42.18
2018-12-02T03:45:29.391Z,41.99
2018-12-02T03:46:29.320Z,41.80
2018-12-02T03:48:26.497Z,41.99
2018-12-02T03:49:25.974Z,41.52
2018-12-02T03:51:29.909Z,40.75
2018-12-02T03:52:19.960Z,40.75
2018-12-02T03:54:25.442Z,40.09
2018-12-02T03:55:15.431Z,40.09
2018-12-02T03:57:22.110Z,39.80
2018-12-02T03:58:11.721Z,40.09
2018-12-02T04:00:05.015Z,39.32
2018-12-02T04:01:12.583Z,39.51
2018-12-02T04:02:58.274Z,38.95
2018-12-02T04:04:05.836Z,39.14
2018-12-02T04:05:51.545Z,39.14
2018-12-02T04:06:59.134Z,38.47
2018-12-02T04:08:44.782Z,38.66
2018-12-02T04:09:52.376Z,38.37
2018-12-02T04:11:39.075Z,38.09
2018-12-02T04:12:47.638Z,37.80
2018-12-02T04:14:39.958Z,37.90
2018-12-02T04:15:40.909Z,37.52
2018-12-02T04:17:25.576Z,37.61
2018-12-02T04:18:33.143Z,37.61
2018-12-02T04:20:26.501Z,37.04
2018-12-02T04:21:26.762Z,37.61
2018-12-02T04:23:12.079Z,37.90
2018-12-02T04:24:19.658Z,37.71
2018-12-02T04:26:14.046Z,37.32
2018-12-02T04:27:12.928Z,37.04
2018-12-02T04:28:59.622Z,37.61
2018-12-02T04:30:08.218Z,37.99
2018-12-02T04:32:00.527Z,37.13
2018-12-02T04:33:00.513Z,37.23
2018-12-02T04:34:54.755Z,37.23
2018-12-02T04:35:47.088Z,37.32
2018-12-02T04:37:48.067Z,37.13
2018-12-02T04:38:40.344Z,37.13
2018-12-02T04:40:41.325Z,36.28
2018-12-02T04:41:42.278Z,35.99
2018-12-02T04:43:35.659Z,35.89
2018-12-02T04:44:26.913Z,35.99
2018-12-02T04:46:21.208Z,36.08
2018-12-02T04:47:21.152Z,35.99
2018-12-02T04:49:22.127Z,35.52
2018-12-02T04:50:22.040Z,35.61
2018-12-02T04:52:07.779Z,35.33
2018-12-02T04:53:15.367Z,35.52
2018-12-02T04:55:10.648Z,35.23
2018-12-02T04:56:10.569Z,35.23
2018-12-02T04:57:56.259Z,35.33
2018-12-02T04:59:03.844Z,35.42
2018-12-02T05:00:57.180Z,35.23
2018-12-02T05:01:57.092Z,34.85
2018-12-02T05:03:42.779Z,34.47
2018-12-02T05:04:51.376Z,34.09
2018-12-02T05:06:44.725Z,34.09
2018-12-02T05:07:43.688Z,33.99
2018-12-02T05:09:29.315Z,33.23
2018-12-02T05:10:36.921Z,33.42
2018-12-02T05:12:23.627Z,32.85
2018-12-02T05:13:31.184Z,32.66
2018-12-02T05:15:25.503Z,32.56
2018-12-02T05:16:25.444Z,32.18
2018-12-02T05:18:11.137Z,31.80
2018-12-02T05:19:18.709Z,31.61
2018-12-02T05:21:04.388Z,31.80
2018-12-02T05:22:11.963Z,31.71
2018-12-02T05:24:05.276Z,31.61
2018-12-02T05:25:05.235Z,31.04
2018-12-02T05:26:50.909Z,30.76
2018-12-02T05:27:58.511Z,30.76
2018-12-02T05:29:45.196Z,30.76
2018-12-02T05:30:52.761Z,30.47
2018-12-02T05:32:46.047Z,30.28
2018-12-02T05:33:46.110Z,30.47
2018-12-02T05:35:31.709Z,29.90
2018-12-02T05:36:39.290Z,30.18
2018-12-02T05:38:24.978Z,30.28
2018-12-02T05:39:32.563Z,30.66
2018-12-02T05:41:25.846Z,30.66
2018-12-02T05:42:25.815Z,30.66
2018-12-02T05:44:11.519Z,31.24
2018-12-02T05:45:19.095Z,31.42
2018-12-02T05:47:04.767Z,31.42
2018-12-02T05:48:13.390Z,31.42
2018-12-02T05:49:58.034Z,31.42
2018-12-02T05:50:57.986Z,31.52
2018-12-02T05:52:58.947Z,31.90
2018-12-02T05:53:51.250Z,32.56
2018-12-02T05:55:44.650Z,32.28
2018-12-02T05:56:53.155Z,32.10
2018-12-02T05:58:46.376Z,33.72
2018-12-02T05:59:38.612Z,33.23
2018-12-02T06:01:41.646Z,33.15
2018-12-02T06:02:32.869Z,32.85
2018-12-02T06:04:26.206Z,32.58
2018-12-02T06:05:26.152Z,33.15
2018-12-02T06:07:19.655Z,33.33
2018-12-02T06:08:27.181Z,33.14
2018-12-02T06:10:12.755Z,33.25
2018-12-02T06:11:12.679Z,33.04
2018-12-02T06:13:13.678Z,32.29
2018-12-02T06:14:05.965Z,33.51
2018-12-02T06:16:06.942Z,33.25
2018-12-02T06:16:59.222Z,33.25
2018-12-02T06:19:01.248Z,32.39
2018-12-02T06:19:52.496Z,32.48
2018-12-02T06:21:53.451Z,32.39
2018-12-02T06:22:45.715Z,33.44
2018-12-02T06:24:39.040Z,33.82
2018-12-02T06:25:46.669Z,35.44
2018-12-02T06:27:39.992Z,36.87
2018-12-02T06:28:39.898Z,38.10
2018-12-02T06:30:25.626Z,39.44
2018-12-02T06:31:25.548Z,39.44
2018-12-02T06:33:18.833Z,40.30
2018-12-02T06:34:18.822Z,40.77
2018-12-02T06:36:12.082Z,41.82
2018-12-02T06:37:12.049Z,41.16
2018-12-02T06:39:05.437Z,42.96
2018-12-02T06:40:05.304Z,41.06
2018-12-02T06:41:58.659Z,41.16
2018-12-02T06:42:58.578Z,42.30
2018-12-02T06:44:59.592Z,39.25
2018-12-02T06:45:51.853Z,39.06
2018-12-02T06:47:45.133Z,39.44
2018-12-02T06:48:52.837Z,41.82
2018-12-02T06:50:38.447Z,42.01
2018-12-02T06:51:46.079Z,41.82
2018-12-02T06:53:39.418Z,43.06
2018-12-02T06:54:31.639Z,42.60
2018-12-02T06:56:24.921Z,41.27
2018-12-02T06:57:24.891Z,40.58
2018-12-02T06:59:18.189Z,43.08
2018-12-02T07:00:18.152Z,42.41
2018-12-02T07:02:11.462Z,42.89
2018-12-02T07:03:19.097Z,42.20
2018-12-02T07:05:12.360Z,41.92
2018-12-02T07:06:12.364Z,42.22
2018-12-02T07:07:58.011Z,42.32
2018-12-02T07:09:05.613Z,41.08
2018-12-02T07:10:58.922Z,39.27
2018-12-02T07:11:51.242Z,38.51
2018-12-02T07:13:44.499Z,39.53
2018-12-02T07:14:52.167Z,38.03
2018-12-02T07:16:45.434Z,36.51
2018-12-02T07:17:37.713Z,35.36
2018-12-02T07:19:38.764Z,35.46
2018-12-02T07:20:38.614Z,34.03
2018-12-02T07:22:24.280Z,34.03
2018-12-02T07:23:24.259Z,34.22
2018-12-02T07:25:18.540Z,33.45
2018-12-02T07:26:18.493Z,32.98
2018-12-02T07:28:11.813Z,33.17
2018-12-02T07:29:11.796Z,32.21
2018-12-02T07:31:12.698Z,32.79
2018-12-02T07:32:05.040Z,32.69
2018-12-02T07:34:07.972Z,32.60
2018-12-02T07:34:59.280Z,32.87
2018-12-02T07:36:52.624Z,33.36
2018-12-02T07:37:52.564Z,33.72
2018-12-02T07:39:53.569Z,33.84
2018-12-02T07:40:53.481Z,35.06
2018-12-02T07:42:46.956Z,35.27
2018-12-02T07:43:46.751Z,35.17
2018-12-02T07:45:32.400Z,35.17
2018-12-02T07:46:32.386Z,36.88
2018-12-02T07:48:34.475Z,36.98
2018-12-02T07:49:35.259Z,37.93
2018-12-02T07:51:19.935Z,38.12
2018-12-02T07:52:27.627Z,37.46
2018-12-02T07:54:20.869Z,40.80
2018-12-02T07:55:20.877Z,40.70
2018-12-02T07:57:06.477Z,42.22
2018-12-02T07:58:15.077Z,41.84
2018-12-02T08:00:00.852Z,43.56
2018-12-02T08:01:08.391Z,42.13
2018-12-02T08:03:01.742Z,44.89
2018-12-02T08:03:54.010Z,44.80
2018-12-02T08:05:55.004Z,44.32
2018-12-02T08:06:47.240Z,44.70
2018-12-02T08:08:40.545Z,44.42
2018-12-02T08:09:40.546Z,45.84
2018-12-02T08:11:41.589Z,46.32
2018-12-02T08:12:33.807Z,47.28
2018-12-02T08:14:34.791Z,45.47
2018-12-02T08:15:27.061Z,47.28
2018-12-02T08:17:20.375Z,47.49
2018-12-02T08:18:20.315Z,49.18
2018-12-02T08:20:22.281Z,48.25
2018-12-02T08:21:13.600Z,48.83
2018-12-02T08:23:06.895Z,49.21
2018-12-02T08:24:06.846Z,48.25
2018-12-02T08:26:07.787Z,50.35
2018-12-02T08:27:00.104Z,49.11
2018-12-02T08:28:53.430Z,49.49
2018-12-02T08:29:53.368Z,50.73
2018-12-02T08:31:46.691Z,50.26
2018-12-02T08:32:46.644Z,49.49
2018-12-02T08:34:41.582Z,51.02
2018-12-02T08:35:40.756Z,51.12
2018-12-02T08:37:34.102Z,49.78
2018-12-02T08:38:34.027Z,49.02
2018-12-02T08:40:27.365Z,48.35
2018-12-02T08:41:27.326Z,47.20
2018-12-02T08:43:20.626Z,45.49
2018-12-02T08:44:28.288Z,47.11
2018-12-02T08:46:21.536Z,47.30
2018-12-02T08:47:13.827Z,47.20
2018-12-02T08:49:07.206Z,47.11
2018-12-02T08:50:14.791Z,46.54
2018-12-02T08:52:00.521Z,47.87
2018-12-02T08:53:08.052Z,48.25
2018-12-02T08:54:54.761Z,47.49
2018-12-02T08:55:54.717Z,47.87
2018-12-02T08:57:55.715Z,48.25
2018-12-02T08:58:47.992Z,47.49
2018-12-02T09:00:48.961Z,47.97
2018-12-02T09:01:41.257Z,48.63
2018-12-02T09:03:42.181Z,47.78
2018-12-02T09:04:34.523Z,48.73
2018-12-02T09:06:28.842Z,49.21
2018-12-02T09:07:28.777Z,48.44
2018-12-02T09:09:29.738Z,48.83
2018-12-02T09:10:22.067Z,49.21
2018-12-02T09:12:15.372Z,49.11
2018-12-02T09:13:15.333Z,49.21
2018-12-02T09:15:08.629Z,49.33
2018-12-02T09:16:08.594Z,50.45
2018-12-02T09:18:01.919Z,50.38
2018-12-02T09:19:01.850Z,50.47
2018-12-02T09:20:55.225Z,50.57
2018-12-02T09:21:55.152Z,50.28
2018-12-02T09:23:48.600Z,50.28
2018-12-02T09:24:48.527Z,50.95
2018-12-02T09:26:41.887Z,50.47
2018-12-02T09:27:41.828Z,51.52
2018-12-02T09:29:35.138Z,51.33
2018-12-02T09:30:35.106Z,50.95
2018-12-02T09:32:37.734Z,51.52
2018-12-02T09:33:30.049Z,51.81
2018-12-02T09:35:23.391Z,51.90
2018-12-02T09:36:23.345Z,52.38
2018-12-02T09:38:16.671Z,51.43
2018-12-02T09:39:18.450Z,51.52
2018-12-02T09:41:09.959Z,51.81
2018-12-02T09:42:09.898Z,53.14
2018-12-02T09:44:03.224Z,52.38
2018-12-02T09:45:03.208Z,52.86
2018-12-02T09:46:56.481Z,53.33
2018-12-02T09:47:56.436Z,53.53
2018-12-02T09:49:57.374Z,51.90
2018-12-02T09:50:49.710Z,51.04
2018-12-02T09:52:50.629Z,52.59
2018-12-02T09:53:42.974Z,52.88
2018-12-02T09:55:43.921Z,52.22
2018-12-02T09:56:36.247Z,51.35
2018-12-02T09:58:37.178Z,50.40
2018-12-02T09:59:29.500Z,49.93
2018-12-02T10:01:22.814Z,51.26
2018-12-02T10:02:30.402Z,51.07
2018-12-02T10:04:16.097Z,51.07
2018-12-02T10:05:16.036Z,50.59
2018-12-02T10:07:09.426Z,51.26
2018-12-02T10:08:08.990Z,51.17
2018-12-02T10:10:10.939Z,50.78
2018-12-02T10:11:09.884Z,51.26
2018-12-02T10:13:04.217Z,50.69
2018-12-02T10:13:56.532Z,50.40
2018-12-02T10:15:57.481Z,50.21
2018-12-02T10:16:57.419Z,49.44
2018-12-02T10:18:50.737Z,47.54
2018-12-02T10:19:50.737Z,46.22
2018-12-02T10:21:44.002Z,44.89
2018-12-02T10:22:43.997Z,45.37
2018-12-02T10:24:29.637Z,44.41
2018-12-02T10:25:37.230Z,45.84
2018-12-02T10:27:30.548Z,45.56
2018-12-02T10:28:30.502Z,47.58
2018-12-02T10:30:24.828Z,46.72
2018-12-02T10:31:23.753Z,48.93
2018-12-02T10:33:09.451Z,49.49
2018-12-02T10:34:17.043Z,48.73
2018-12-02T10:36:10.349Z,50.35
2018-12-02T10:37:10.290Z,53.34
2018-12-02T10:38:56.007Z,53.06
2018-12-02T10:40:03.582Z,54.49
2018-12-02T10:41:56.892Z,53.73
2018-12-02T10:42:56.857Z,53.34
2018-12-02T10:44:42.529Z,53.92
2018-12-02T10:45:51.102Z,54.39
2018-12-02T10:47:35.817Z,55.74
2018-12-02T10:48:43.353Z,55.35
2018-12-02T10:50:29.088Z,56.50
2018-12-02T10:51:36.704Z,57.84
2018-12-02T10:53:22.350Z,57.36
2018-12-02T10:54:29.934Z,56.91
2018-12-02T10:56:25.262Z,58.44
2018-12-02T10:57:24.182Z,57.77
2018-12-02T10:59:09.851Z,58.63
2018-12-02T11:00:17.913Z,58.44
2018-12-02T11:02:10.789Z,59.20
2018-12-02T11:03:10.757Z,59.30
2018-12-02T11:05:04.049Z,59.49
2018-12-02T11:05:56.438Z,61.02
2018-12-02T11:07:57.399Z,61.12
2018-12-02T11:10:18.867Z,60.64
2018-12-02T11:11:18.247Z,60.74
2018-12-02T11:13:04.035Z,60.26
2018-12-02T11:14:11.523Z,60.06
2018-12-02T11:16:05.901Z,60.64
2018-12-02T11:17:04.783Z,61.25
2018-12-02T11:18:50.468Z,60.86
2018-12-02T11:19:58.102Z,60.86
2018-12-02T11:21:51.400Z,60.86
2018-12-02T11:22:51.399Z,61.25
2018-12-02T11:24:45.749Z,59.78
2018-12-02T11:25:45.630Z,58.54
2018-12-02T11:27:31.341Z,58.47
2018-12-02T11:28:38.938Z,58.95
2018-12-02T11:30:24.724Z,60.64
2018-12-02T11:31:32.328Z,58.54
2018-12-02T11:33:18.053Z,59.01
2018-12-02T11:34:25.674Z,59.01
2018-12-02T11:36:20.915Z,57.87
2018-12-02T11:37:12.236Z,58.73
2018-12-02T11:39:05.555Z,56.62
2018-12-02T11:40:13.159Z,56.62
2018-12-02T11:42:00.538Z,59.40
2018-12-02T11:43:08.411Z,58.15
2018-12-02T11:44:53.081Z,57.97
2018-12-02T11:46:00.715Z,58.15
2018-12-02T11:47:46.353Z,57.99
2018-12-02T11:48:54.012Z,59.05
2018-12-02T11:50:47.301Z,62.01
2018-12-02T11:51:47.195Z,62.11
2018-12-02T11:53:33.011Z,62.11
2018-12-02T11:54:33.380Z,60.96
2018-12-02T11:56:27.211Z,60.86
2018-12-02T11:57:34.847Z,61.82
2018-12-02T11:59:29.276Z,61.44
2018-12-02T12:00:21.431Z,61.44
2018-12-02T12:02:14.777Z,60.96
2018-12-02T12:03:14.710Z,61.88
2018-12-02T12:05:08.042Z,61.05
2018-12-02T12:06:08.016Z,60.29
2018-12-02T12:08:01.396Z,61.82
2018-12-02T12:09:01.276Z,61.72
2018-12-02T12:10:54.642Z,61.91
2018-12-02T12:11:54.672Z,62.49
2018-12-02T12:13:47.946Z,61.41
2018-12-02T12:14:55.536Z,62.40
2018-12-02T12:16:41.243Z,62.40
2018-12-02T12:17:41.167Z,63.32
2018-12-02T12:19:35.516Z,61.60
2018-12-02T12:20:35.433Z,61.12
2018-12-02T12:22:28.764Z,62.08
2018-12-02T12:23:28.715Z,62.37
2018-12-02T12:25:22.182Z,63.23
2018-12-02T12:26:22.096Z,63.35
2018-12-02T12:28:15.500Z,63.99
2018-12-02T12:29:15.462Z,64.75
2018-12-02T12:31:08.772Z,63.89
2018-12-02T12:32:08.713Z,65.71
2018-12-02T12:34:02.031Z,64.88
2018-12-02T12:35:01.987Z,65.08
2018-12-02T12:36:55.322Z,65.55
2018-12-02T12:37:55.286Z,65.84
2018-12-02T12:39:48.581Z,66.03
2018-12-02T12:40:48.529Z,64.69
2018-12-02T12:42:41.872Z,65.26
2018-12-02T12:43:41.805Z,65.36
2018-12-02T12:45:35.118Z,66.80
2018-12-02T12:46:35.117Z,66.61
2018-12-02T12:48:28.443Z,70.34
2018-12-02T12:49:28.372Z,71.52
2018-12-02T12:51:21.728Z,72.58
2018-12-02T12:52:21.645Z,72.77
2018-12-02T12:54:15.964Z,72.77
2018-12-02T12:55:15.934Z,72.58
2018-12-02T12:57:10.418Z,72.29
2018-12-02T12:58:10.322Z,73.44
2018-12-02T13:00:03.622Z,75.54
2018-12-02T13:01:03.590Z,75.73
2018-12-02T13:02:56.925Z,77.08
2018-12-02T13:03:56.859Z,75.73
2018-12-02T13:05:51.357Z,74.77
2018-12-02T13:06:50.165Z,75.16
2018-12-02T13:08:43.499Z,76.50
2018-12-02T13:09:43.410Z,76.60
2018-12-02T13:11:36.774Z,76.98
2018-12-02T13:12:36.715Z,76.50
2018-12-02T13:14:30.019Z,76.31
2018-12-02T13:15:29.980Z,76.31
2018-12-02T13:17:23.285Z,75.93
2018-12-02T13:18:23.239Z,76.02
2018-12-02T13:20:17.590Z,75.22
2018-12-02T13:21:17.578Z,75.12
2018-12-02T13:23:10.834Z,74.55
2018-12-02T13:24:10.816Z,75.51
2018-12-02T13:26:04.173Z,75.22
2018-12-02T13:27:04.071Z,74.87
2018-12-02T13:28:57.425Z,75.31
2018-12-02T13:29:57.355Z,74.93
2018-12-02T13:31:50.651Z,78.47
2018-12-02T13:32:50.631Z,77.33
2018-12-02T13:34:43.969Z,77.70
2018-12-02T13:35:43.912Z,77.23
2018-12-02T13:37:37.230Z,76.65
2018-12-02T13:38:37.219Z,78.57
2018-12-02T13:40:30.530Z,79.05
2018-12-02T13:41:30.461Z,78.66
2018-12-02T13:43:24.769Z,78.09
2018-12-02T13:44:24.744Z,78.57
2018-12-02T13:46:19.101Z,77.90
2018-12-02T13:47:19.000Z,78.09
2018-12-02T13:49:12.337Z,77.04
2018-12-02T13:50:12.282Z,78.19
2018-12-02T13:52:05.659Z,79.05
2018-12-02T13:53:05.587Z,78.28
2018-12-02T13:54:58.926Z,78.38
2018-12-02T13:55:58.864Z,77.04
2018-12-02T13:57:53.206Z,76.18
2018-12-02T13:58:53.182Z,76.18
2018-12-02T14:00:46.479Z,74.74
2018-12-02T14:01:46.441Z,74.65
2018-12-02T14:03:39.745Z,73.97
2018-12-02T14:04:39.745Z,73.08
2018-12-02T14:06:33.088Z,70.78
2018-12-02T14:07:33.000Z,71.16
2018-12-02T14:09:26.308Z,70.87
2018-12-02T14:10:26.277Z,70.87
2018-12-02T14:12:19.651Z,68.87
2018-12-02T14:13:19.544Z,69.64
2018-12-02T14:15:12.891Z,69.35
2018-12-02T14:16:12.842Z,69.64
2018-12-02T14:18:06.166Z,68.87
2018-12-02T14:19:06.123Z,70.01
2018-12-02T14:20:59.471Z,70.78
2018-12-02T14:21:59.398Z,70.78
2018-12-02T14:23:52.756Z,70.87
2018-12-02T14:24:52.681Z,70.59
2018-12-02T14:26:45.993Z,72.12
2018-12-02T14:27:45.922Z,71.64
2018-12-02T14:29:38.770Z,72.31
2018-12-02T14:30:38.723Z,72.98
2018-12-02T14:32:32.042Z,73.27
2018-12-02T14:33:35.810Z,73.36
2018-12-02T14:35:25.343Z,72.50
2018-12-02T14:36:25.281Z,73.08
2018-12-02T14:38:18.594Z,70.97
2018-12-02T14:39:18.540Z,70.11
2018-12-02T14:41:11.900Z,70.11
2018-12-02T14:42:11.846Z,68.49
2018-12-02T14:44:04.641Z,68.77
2018-12-02T14:45:04.807Z,69.35
2018-12-02T14:46:57.929Z,68.87
2018-12-02T14:47:57.908Z,68.68
2018-12-02T14:49:51.201Z,69.25
2018-12-02T14:50:51.167Z,70.68
2018-12-02T14:52:45.504Z,68.87
2018-12-02T14:53:45.424Z,69.54
2018-12-02T14:55:38.752Z,71.07
2018-12-02T14:56:38.709Z,70.21
2018-12-02T14:58:32.052Z,70.87
2018-12-02T14:59:31.997Z,71.55
2018-12-02T15:01:25.300Z,70.78
2018-12-02T15:02:25.274Z,69.73
2018-12-02T15:04:18.598Z,70.01
2018-12-02T15:05:18.564Z,69.64
2018-12-02T15:07:11.835Z,69.44
2018-12-02T15:08:11.815Z,69.06
2018-12-02T15:10:05.163Z,68.96
2018-12-02T15:11:05.090Z,68.29
2018-12-02T15:12:58.454Z,67.53
2018-12-02T15:13:58.385Z,67.34
2018-12-02T15:15:51.695Z,67.82
2018-12-02T15:16:51.646Z,67.05
2018-12-02T15:18:45.994Z,66.76
2018-12-02T15:19:45.975Z,66.67
2018-12-02T15:21:39.229Z,66.96
2018-12-02T15:22:39.235Z,67.24
2018-12-02T15:24:32.536Z,66.67
2018-12-02T15:25:32.501Z,68.01
2018-12-02T15:27:25.780Z,66.96
2018-12-02T15:28:25.779Z,66.76
2018-12-02T15:30:19.083Z,67.05
2018-12-02T15:31:19.031Z,66.86
2018-12-02T15:33:12.310Z,66.96
2018-12-02T15:34:12.291Z,66.09
2018-12-02T15:36:05.601Z,67.24
2018-12-02T15:37:05.560Z,66.76
2018-12-02T15:38:59.875Z,66.28
2018-12-02T15:39:59.835Z,66.76
2018-12-02T15:41:53.232Z,66.38
2018-12-02T15:42:53.102Z,66.96
2018-12-02T15:44:46.492Z,66.86
2018-12-02T15:45:46.396Z,66.96
2018-12-02T15:47:40.697Z,66.28
2018-12-02T15:48:40.660Z,66.57
2018-12-02T15:50:34.007Z,65.61
2018-12-02T15:51:33.921Z,65.14
2018-12-02T15:53:27.273Z,61.98
2018-12-02T15:54:27.223Z,60.06
2018-12-02T15:56:20.571Z,58.25
2018-12-02T15:57:20.491Z,58.12
2018-12-02T15:59:13.797Z,57.29
2018-12-02T16:00:13.758Z,57.84
2018-12-02T16:02:07.073Z,57.26
2018-12-02T16:03:07.043Z,56.79
2018-12-02T16:05:00.338Z,56.50
2018-12-02T16:06:00.310Z,56.40
2018-12-02T16:07:53.653Z,56.69
2018-12-02T16:08:53.583Z,55.74
2018-12-02T16:10:47.956Z,55.83
2018-12-02T16:11:47.899Z,56.21
2018-12-02T16:13:42.157Z,55.54
2018-12-02T16:14:42.157Z,55.54
2018-12-02T16:16:35.442Z,55.26
2018-12-02T16:17:35.401Z,55.54
2018-12-02T16:19:29.694Z,56.12
2018-12-02T16:20:29.679Z,55.74
2018-12-02T16:22:22.984Z,54.97
2018-12-02T16:23:22.936Z,55.54
2018-12-02T16:25:16.226Z,55.64
2018-12-02T16:26:16.209Z,56.12
2018-12-02T16:28:09.525Z,56.69
2018-12-02T16:29:09.500Z,57.65
2018-12-02T16:31:02.807Z,56.69
2018-12-02T16:32:02.854Z,56.31
2018-12-02T16:33:57.118Z,55.74
2018-12-02T16:34:57.033Z,55.16
2018-12-02T16:36:50.363Z,55.45
2018-12-02T16:37:50.317Z,55.54
2018-12-02T16:39:43.784Z,55.26
2018-12-02T16:40:43.749Z,55.26
2018-12-02T16:42:38.064Z,56.12
2018-12-02T16:43:38.008Z,55.93
2018-12-02T16:45:31.358Z,56.60
2018-12-02T16:46:31.270Z,56.88
2018-12-02T16:48:24.588Z,57.36
2018-12-02T16:49:24.536Z,57.75
2018-12-02T16:51:21.651Z,58.41
2018-12-02T16:52:18.543Z,59.47
2018-12-02T16:54:11.828Z,59.66
2018-12-02T16:55:11.770Z,60.52
2018-12-02T16:57:05.074Z,60.23
2018-12-02T16:58:05.059Z,61.09
2018-12-02T16:59:58.374Z,61.38
2018-12-02T17:00:58.335Z,61.38
2018-12-02T17:02:52.644Z,63.13
2018-12-02T17:03:52.576Z,63.10
2018-12-02T17:05:45.910Z,63.70
2018-12-02T17:06:45.850Z,64.18
2018-12-02T17:08:39.174Z,64.09
2018-12-02T17:09:39.140Z,63.99
2018-12-02T17:11:33.490Z,64.18
2018-12-02T17:12:33.384Z,63.13
2018-12-02T17:14:26.705Z,63.32
2018-12-02T17:15:26.691Z,63.89
2018-12-02T17:17:19.959Z,63.42
2018-12-02T17:18:19.961Z,64.09
2018-12-02T17:20:13.303Z,63.51
2018-12-02T17:21:13.208Z,64.28
2018-12-02T17:23:06.545Z,64.18
2018-12-02T17:24:06.477Z,64.28
2018-12-02T17:25:59.809Z,64.66
2018-12-02T17:26:59.772Z,64.56
2018-12-02T17:28:54.077Z,64.56
2018-12-02T17:29:54.015Z,64.66
2018-12-02T17:31:47.375Z,65.23
2018-12-02T17:32:47.295Z,65.33
2018-12-02T17:34:40.637Z,65.42
2018-12-02T17:35:40.625Z,64.75
2018-12-02T17:37:34.915Z,63.89
2018-12-02T17:38:34.852Z,63.23
2018-12-02T17:40:28.196Z,63.13
2018-12-02T17:41:28.149Z,62.46
2018-12-02T17:43:22.446Z,60.64
2018-12-02T17:44:22.473Z,61.02
2018-12-02T17:46:16.785Z,59.66
2018-12-02T17:47:16.719Z,59.56
2018-12-02T17:49:11.058Z,58.32
2018-12-02T17:50:11.018Z,57.46
2018-12-02T17:52:04.321Z,57.93
2018-12-02T17:53:04.265Z,56.40
2018-12-02T17:54:57.641Z,56.40
2018-12-02T17:55:57.609Z,56.40
2018-12-02T17:57:50.878Z,55.54
2018-12-02T17:58:50.847Z,55.07
2018-12-02T18:00:45.157Z,55.07
2018-12-02T18:01:45.133Z,54.88
2018-12-02T18:03:38.411Z,55.07
2018-12-02T18:04:38.373Z,54.88
2018-12-02T18:06:32.694Z,54.39
2018-12-02T18:07:32.705Z,53.92
2018-12-02T18:09:25.971Z,53.25
2018-12-02T18:10:25.904Z,54.04
2018-12-02T18:12:19.304Z,52.39
2018-12-02T18:13:19.193Z,51.05
2018-12-02T18:15:12.545Z,48.66
2018-12-02T18:16:12.479Z,48.28
2018-12-02T18:18:05.817Z,47.52
2018-12-02T18:19:05.754Z,47.52
2018-12-02T18:21:00.036Z,47.32
2018-12-02T18:22:00.030Z,46.66
2018-12-02T18:23:53.407Z,46.08
2018-12-02T18:24:53.281Z,46.66
2018-12-02T18:26:47.619Z,49.14
2018-12-02T18:27:47.568Z,49.23
2018-12-02T18:29:40.853Z,52.58
2018-12-02T18:30:40.844Z,54.11
2018-12-02T18:32:35.307Z,54.68
2018-12-02T18:33:35.103Z,56.40
2018-12-02T18:35:29.409Z,59.56
2018-12-02T18:36:29.340Z,61.95
2018-12-02T18:38:22.725Z,62.33
2018-12-02T18:39:22.644Z,61.66